Time;durP1;ratioP1;P1;durP2;ratioP2;P2;SDS_P1;SDS_P2;PMS_P1;PMS_P2;Temp;Humidity;BMP_temperature;BMP_pressure;BME280_temperature;BME280_humidity;BME280_pressure;Samples;Min_cycle;Max_cycle;Signal;HPM_P1;HPM_P2
2023/04/01 00:00:34;;;;;;;14.75;6.07;;;15.60;1.00;;;;;;4886904;29;20044;-73
2023/04/01 00:03:01;;;;;;;16.13;6.30;;;15.50;1.00;;;;;;4905333;29;20112;-73
2023/04/01 00:05:29;;;;;;;14.57;5.85;;;15.40;1.00;;;;;;4902791;29;20377;-77
2023/04/01 00:07:56;;;;;;;10.02;6.13;;;15.30;40.80;;;;;;4899680;29;20049;-73
2023/04/01 00:10:24;;;;;;;14.30;6.10;;;15.20;1.00;;;;;;4898816;29;20036;-75
2023/04/01 00:12:53;;;;;;;14.05;6.40;;;15.10;1.00;;;;;;4898398;29;20041;-77
2023/04/01 00:15:20;;;;;;;14.60;6.20;;;14.90;99.90;;;;;;4901270;29;20497;-76
2023/04/01 00:17:48;;;;;;;19.10;7.20;;;14.80;99.90;;;;;;4901113;29;20048;-74
2023/04/01 00:20:15;;;;;;;14.05;7.20;;;14.70;1.00;;;;;;4899773;29;20071;-74
2023/04/01 00:22:43;;;;;;;12.57;6.35;;;14.70;1.00;;;;;;4901392;29;20063;-76
2023/04/01 00:25:11;;;;;;;14.90;5.70;;;14.60;1.00;;;;;;4900396;29;20043;-75
2023/04/01 00:27:38;;;;;;;14.23;6.75;;;14.70;1.00;;;;;;4884477;29;20131;-76
2023/04/01 00:30:09;;;;;;;13.73;6.35;;;14.60;99.90;;;;;;4897956;29;20045;-74
2023/04/01 00:32:37;;;;;;;15.98;8.68;;;14.50;99.90;;;;;;4883278;29;20552;-74
2023/04/01 00:35:05;;;;;;;18.52;8.52;;;14.40;1.00;;;;;;4899035;29;20055;-76
2023/04/01 00:37:36;;;;;;;24.02;10.73;;;14.30;1.00;;;;;;4883693;29;20466;-77
2023/04/01 00:40:06;;;;;;;21.98;9.63;;;14.20;1.00;;;;;;4891784;29;20048;-73
2023/04/01 00:42:34;;;;;;;16.65;9.05;;;14.10;1.00;;;;;;4898268;29;20132;-74
2023/04/01 00:45:28;;;;;;;17.58;9.18;;;14.10;1.00;;;;;;4881568;29;20044;-74
2023/04/01 00:47:57;;;;;;;19.13;9.77;;;14.00;1.00;;;;;;4883640;29;20059;-74
2023/04/01 00:50:25;;;;;;;17.23;8.75;;;14.00;99.90;;;;;;4903930;29;20067;-78
2023/04/01 00:52:54;;;;;;;16.75;8.77;;;14.00;99.90;;;;;;4889272;29;20401;-75
2023/04/01 00:55:23;;;;;;;16.63;7.60;;;14.10;99.90;;;;;;4882721;29;20109;-75
2023/04/01 00:57:53;;;;;;;14.60;6.40;;;14.10;1.00;;;;;;4881827;29;20120;-75
2023/04/01 01:00:21;;;;;;;19.48;8.90;;;14.10;1.00;;;;;;4880784;29;20063;-78
2023/04/01 01:02:52;;;;;;;11.32;5.47;;;14.20;1.00;;;;;;4881805;29;20044;-74
2023/04/01 01:05:29;;;;;;;14.95;5.10;;;14.20;35.90;;;;;;4901532;29;20127;-75
2023/04/01 01:08:04;;;;;;;11.93;4.68;;;14.20;99.90;;;;;;4881895;29;20049;-76
2023/04/01 01:10:34;;;;;;;10.07;4.38;;;14.20;99.90;;;;;;4882620;29;20060;-77
2023/04/01 01:13:09;;;;;;;14.30;4.90;;;14.20;1.00;;;;;;4897849;29;20059;-75
2023/04/01 01:15:44;;;;;;;10.07;5.07;;;14.10;1.00;;;;;;4898527;29;20040;-75
2023/04/01 01:18:20;;;;;;;12.43;5.28;;;14.00;30.90;;;;;;4898788;29;20298;-74
2023/04/01 01:21:32;;;;;;;17.13;6.13;;;14.00;99.90;;;;;;4884587;29;20142;-76
2023/04/01 01:24:26;;;;;;;13.05;6.97;;;13.90;99.90;;;;;;4860954;29;20052;-74
2023/04/01 01:27:00;;;;;;;10.18;5.80;;;13.60;99.90;;;;;;4906759;29;20049;-76
2023/04/01 01:30:11;;;;;;;13.57;5.68;;;13.50;99.90;;;;;;4899695;29;20501;-77
2023/04/01 01:33:12;;;;;;;11.68;4.35;;;13.40;99.90;;;;;;4883291;29;20044;-75
2023/04/01 01:35:44;;;;;;;15.00;3.97;;;13.30;99.90;;;;;;4886270;29;20505;-74
2023/04/01 01:38:19;;;;;;;15.25;4.18;;;13.30;99.90;;;;;;4883817;29;20063;-74
2023/04/01 01:40:58;;;;;;;12.55;5.00;;;13.20;99.90;;;;;;4883080;29;20045;-76
2023/04/01 01:43:31;;;;;;;10.68;5.03;;;13.10;99.90;;;;;;4900264;29;20117;-77
2023/04/01 01:46:04;;;;;;;10.88;4.53;;;13.00;99.90;;;;;;4880167;29;20409;-73
2023/04/01 01:48:35;;;;;;;9.00;4.82;;;12.90;99.90;;;;;;4897020;29;20078;-76
2023/04/01 01:51:06;;;;;;;11.73;4.78;;;12.80;99.90;;;;;;4897286;29;20078;-75
2023/04/01 01:53:33;;;;;;;11.70;4.45;;;12.70;99.90;;;;;;4878572;29;20048;-76
2023/04/01 01:56:01;;;;;;;9.90;4.22;;;12.70;99.90;;;;;;4877421;29;20065;-76
2023/04/01 01:58:40;;;;;;;14.77;8.27;;;12.70;99.90;;;;;;4878630;29;20048;-76
2023/04/01 02:01:12;;;;;;;10.32;5.65;;;12.70;99.90;;;;;;4878906;29;20058;-77
2023/04/01 02:03:42;;;;;;;42.50;30.58;;;12.80;99.90;;;;;;4877069;29;20052;-75
2023/04/01 02:06:14;;;;;;;11.60;7.93;;;12.70;99.90;;;;;;4895141;29;20108;-76
2023/04/01 02:08:46;;;;;;;10.10;5.65;;;12.60;99.90;;;;;;4879379;29;20045;-77
2023/04/01 02:11:18;;;;;;;8.45;4.90;;;12.60;99.90;;;;;;4877256;29;20051;-77
2023/04/01 02:13:53;;;;;;;8.65;4.90;;;12.60;99.90;;;;;;4890636;29;20083;-74
2023/04/01 02:16:24;;;;;;;7.60;4.50;;;12.50;99.90;;;;;;4879851;29;20040;-76
2023/04/01 02:18:54;;;;;;;7.93;4.80;;;12.30;99.90;;;;;;4877484;29;20068;-75
2023/04/01 02:21:28;;;;;;;7.70;4.57;;;12.30;99.90;;;;;;4876171;29;20108;-74
2023/04/01 02:23:57;;;;;;;9.55;4.88;;;12.20;99.90;;;;;;4895349;29;20080;-76
2023/04/01 02:26:26;;;;;;;8.90;5.75;;;12.20;99.90;;;;;;4895315;29;20037;-77
2023/04/01 02:28:54;;;;;;;7.80;5.30;;;12.10;99.90;;;;;;4897374;29;20056;-77
2023/04/01 02:31:24;;;;;;;8.18;5.07;;;12.10;99.90;;;;;;4898291;29;20096;-77
2023/04/01 02:33:52;;;;;;;7.75;4.80;;;12.10;99.90;;;;;;4878135;29;20049;-77
2023/04/01 02:36:20;;;;;;;7.63;4.20;;;12.00;99.90;;;;;;4894522;29;20045;-78
2023/04/01 02:38:50;;;;;;;8.18;5.05;;;12.00;99.90;;;;;;4894758;29;20080;-77
2023/04/01 02:41:18;;;;;;;6.30;4.30;;;11.90;99.90;;;;;;4878147;29;20056;-76
2023/04/01 02:43:45;;;;;;;7.10;4.78;;;12.00;99.90;;;;;;4877123;29;20409;-77
2023/04/01 02:46:13;;;;;;;6.95;4.78;;;12.00;99.90;;;;;;4876804;29;20045;-77
2023/04/01 02:48:40;;;;;;;8.43;4.80;;;12.00;99.90;;;;;;4892919;29;20475;-77
2023/04/01 02:51:09;;;;;;;8.50;5.00;;;11.90;99.90;;;;;;4876917;29;20143;-77
2023/04/01 02:53:36;;;;;;;7.78;4.72;;;11.90;99.90;;;;;;4880918;29;20630;-75
2023/04/01 02:56:06;;;;;;;7.18;4.35;;;11.90;99.90;;;;;;4899657;29;20069;-73
2023/04/01 02:58:33;;;;;;;6.60;3.92;;;11.90;99.90;;;;;;4881646;29;20068;-76
2023/04/01 03:01:01;;;;;;;7.55;4.40;;;12.00;99.90;;;;;;4898271;29;20045;-72
2023/04/01 03:03:28;;;;;;;6.65;4.18;;;11.90;99.90;;;;;;4883129;29;20079;-75
2023/04/01 03:05:58;;;;;;;8.18;4.18;;;12.00;99.90;;;;;;4901440;29;20047;-76
2023/04/01 03:08:26;;;;;;;7.40;3.67;;;11.90;99.90;;;;;;4883637;29;20497;-75
2023/04/01 03:10:53;;;;;;;7.38;3.60;;;11.90;99.90;;;;;;4881945;29;20449;-74
2023/04/01 03:13:22;;;;;;;7.50;3.70;;;11.90;99.90;;;;;;4884822;29;20040;-74
2023/04/01 03:15:50;;;;;;;6.13;3.67;;;11.90;99.90;;;;;;4885422;29;20112;-75
2023/04/01 03:18:18;;;;;;;5.70;3.33;;;11.90;99.90;;;;;;4900925;29;20044;-75
2023/04/01 03:20:45;;;;;;;4.63;3.08;;;11.90;99.90;;;;;;4899444;29;20064;-74
2023/04/01 03:23:13;;;;;;;5.88;2.88;;;11.90;99.90;;;;;;4882975;29;20045;-79
2023/04/01 03:25:41;;;;;;;5.85;2.67;;;11.90;99.90;;;;;;4881004;29;20071;-76
2023/04/01 03:28:09;;;;;;;6.68;3.30;;;11.90;99.90;;;;;;4897085;29;20048;-77
2023/04/01 03:30:39;;;;;;;6.57;3.42;;;11.90;99.90;;;;;;4879910;29;20076;-75
2023/04/01 03:33:07;;;;;;;5.13;3.15;;;11.90;99.90;;;;;;4880527;29;20068;-79
2023/04/01 03:35:35;;;;;;;7.00;3.60;;;11.80;99.90;;;;;;4882108;29;20104;-78
2023/04/01 03:38:04;;;;;;;5.00;3.10;;;11.80;99.90;;;;;;4882119;29;20044;-77
2023/04/01 03:40:32;;;;;;;5.97;4.38;;;11.80;99.90;;;;;;4880502;29;20041;-74
2023/04/01 03:43:00;;;;;;;5.90;5.05;;;11.80;99.90;;;;;;4879619;29;20137;-75
2023/04/01 03:45:28;;;;;;;9.50;5.82;;;11.90;99.90;;;;;;4879523;29;20053;-78
2023/04/01 03:47:57;;;;;;;7.30;5.75;;;11.90;99.90;;;;;;4881684;29;20096;-76
2023/04/01 03:50:25;;;;;;;9.35;5.00;;;11.90;99.90;;;;;;4880859;29;20063;-77
2023/04/01 03:52:53;;;;;;;6.88;4.75;;;11.90;99.90;;;;;;4896605;29;20052;-76
2023/04/01 03:55:21;;;;;;;5.75;4.18;;;11.80;99.90;;;;;;4878202;29;20044;-77
2023/04/01 03:57:49;;;;;;;8.80;4.63;;;11.70;99.90;;;;;;4879318;29;20053;-77
2023/04/01 04:00:20;;;;;;;8.32;4.80;;;11.60;99.90;;;;;;4879041;29;20056;-77
2023/04/01 04:02:54;;;;;;;7.03;4.70;;;11.50;99.90;;;;;;4897832;29;20040;-78
2023/04/01 04:05:29;;;;;;;5.72;3.90;;;11.50;99.90;;;;;;4893919;29;20037;-76
2023/04/01 04:07:57;;;;;;;7.03;4.10;;;11.50;99.90;;;;;;4896686;29;20108;-75
2023/04/01 04:10:25;;;;;;;7.00;3.88;;;11.40;99.90;;;;;;4888474;29;20124;-75
2023/04/01 04:12:53;;;;;;;5.82;3.50;;;11.50;99.90;;;;;;4879673;29;20052;-75
2023/04/01 04:15:23;;;;;;;5.95;3.90;;;11.50;99.90;;;;;;4883849;29;20052;-75
2023/04/01 04:17:51;;;;;;;7.78;4.57;;;11.50;99.90;;;;;;4893296;29;20040;-76
2023/04/01 04:20:18;;;;;;;6.35;4.35;;;11.40;99.90;;;;;;4886095;29;20072;-78
2023/04/01 04:22:47;;;;;;;6.07;4.75;;;11.40;99.90;;;;;;4879414;29;20053;-77
2023/04/01 04:25:15;;;;;;;6.65;4.90;;;11.30;99.90;;;;;;4878992;29;20052;-74
2023/04/01 04:27:43;;;;;;;6.90;5.50;;;11.30;99.90;;;;;;4878625;29;20100;-76
2023/04/01 04:30:14;;;;;;;9.05;5.85;;;11.30;99.90;;;;;;4886626;29;20052;-76
2023/04/01 04:32:41;;;;;;;7.80;6.07;;;11.30;99.90;;;;;;4900827;29;20045;-74
2023/04/01 04:35:11;;;;;;;9.40;7.10;;;11.30;99.90;;;;;;4877872;29;20076;-77
2023/04/01 04:37:38;;;;;;;11.68;8.02;;;11.30;99.90;;;;;;4878931;29;20045;-77
2023/04/01 04:40:09;;;;;;;11.18;8.35;;;11.20;99.90;;;;;;4879590;29;20041;-75
2023/04/01 04:42:37;;;;;;;13.45;9.05;;;11.20;99.90;;;;;;4878690;29;20052;-77
2023/04/01 04:45:12;;;;;;;13.55;10.40;;;11.10;99.90;;;;;;4899530;29;20037;-74
2023/04/01 04:47:43;;;;;;;18.02;12.35;;;11.00;99.90;;;;;;4883572;29;20049;-76
2023/04/01 04:50:11;;;;;;;16.35;13.00;;;11.10;99.90;;;;;;4879203;29;20527;-74
2023/04/01 04:52:40;;;;;;;16.83;13.52;;;11.20;99.90;;;;;;4878299;29;20413;-76
2023/04/01 04:55:10;;;;;;;18.42;15.23;;;11.30;99.90;;;;;;4877943;29;20044;-77
2023/04/01 04:57:39;;;;;;;22.38;17.25;;;11.40;99.90;;;;;;4878696;29;20084;-78
2023/04/01 05:00:09;;;;;;;19.83;16.02;;;11.40;99.90;;;;;;4878019;29;20048;-77
2023/04/01 05:02:48;;;;;;;22.75;16.92;;;11.40;99.90;;;;;;4878218;29;20147;-77
2023/04/01 05:05:16;;;;;;;22.42;18.45;;;11.40;99.90;;;;;;4877019;29;20072;-77
2023/04/01 05:07:44;;;;;;;23.90;18.52;;;11.50;99.90;;;;;;4877327;29;20131;-77
2023/04/01 05:10:13;;;;;;;22.00;16.92;;;11.50;99.90;;;;;;4893980;29;20666;-76
2023/04/01 05:12:40;;;;;;;23.17;18.00;;;11.60;99.90;;;;;;4877866;29;20108;-77
2023/04/01 05:15:10;;;;;;;22.98;17.73;;;11.60;99.90;;;;;;4877148;29;20056;-76
2023/04/01 05:17:39;;;;;;;20.75;15.98;;;11.70;99.90;;;;;;4878920;29;20064;-75
2023/04/01 05:20:08;;;;;;;20.92;17.45;;;11.80;99.90;;;;;;4877544;29;20100;-77
2023/04/01 05:22:36;;;;;;;21.20;16.67;;;11.80;99.90;;;;;;4877682;29;20071;-75
2023/04/01 05:25:03;;;;;;;21.00;16.35;;;11.80;99.90;;;;;;4893798;29;20060;-78
2023/04/01 05:27:32;;;;;;;23.42;18.23;;;11.80;99.90;;;;;;4877936;29;20069;-78
2023/04/01 05:30:01;;;;;;;24.48;18.73;;;11.80;99.90;;;;;;4892763;29;20053;-75
2023/04/01 05:32:52;;;;;;;25.90;20.70;;;11.90;99.90;;;;;;4886194;29;20087;-78
2023/04/01 05:35:20;;;;;;;30.67;23.63;;;11.90;99.90;;;;;;4878702;29;20056;-74
2023/04/01 05:37:49;;;;;;;25.17;19.25;;;11.90;99.90;;;;;;4879660;29;20560;-78
2023/04/01 05:40:17;;;;;;;21.35;16.27;;;11.80;99.90;;;;;;4879086;29;20037;-78
2023/04/01 05:42:51;;;;;;;22.98;14.90;;;11.60;99.90;;;;;;4894982;29;20048;-77
2023/04/01 05:45:19;;;;;;;23.83;11.77;;;11.30;99.90;;;;;;4877597;29;20421;-76
2023/04/01 05:48:16;;;;;;;2.63;0.63;;;11.20;99.90;;;;;;4899554;29;20045;-79
2023/04/01 05:50:45;;;;;;;0.20;0.20;;;11.00;99.90;;;;;;4882786;29;20045;-78
2023/04/01 05:53:13;;;;;;;0.43;0.43;;;10.80;99.90;;;;;;4877745;29;20061;-77
2023/04/01 05:55:43;;;;;;;0.43;0.43;;;10.80;99.90;;;;;;4877005;29;20053;-78
2023/04/01 05:58:12;;;;;;;0.22;0.22;;;10.80;99.90;;;;;;4877185;29;20048;-77
2023/04/01 06:00:43;;;;;;;0.20;0.20;;;10.80;99.90;;;;;;4877033;29;20101;-77
2023/04/01 06:03:11;;;;;;;1.50;1.40;;;10.80;99.90;;;;;;4876665;29;20052;-77
2023/04/01 06:05:41;;;;;;;0.52;0.52;;;10.90;99.90;;;;;;4893358;29;20043;-76
2023/04/01 06:08:13;;;;;;;0.10;0.10;;;10.90;99.90;;;;;;4876715;29;20091;-78
2023/04/01 06:10:52;;;;;;;20.10;14.70;;;10.90;99.90;;;;;;4878049;29;20047;-77
2023/04/01 06:13:36;;;;;;;30.17;21.20;;;10.90;99.90;;;;;;4892106;29;20039;-78
2023/04/01 06:16:12;;;;;;;24.52;18.55;;;11.00;99.90;;;;;;4898374;29;20048;-77
2023/04/01 06:18:54;;;;;;;23.55;17.65;;;11.00;99.90;;;;;;4897585;29;20073;-76
2023/04/01 06:21:52;;;;;;;23.10;17.20;;;10.90;99.90;;;;;;4889028;29;20630;-78
2023/04/01 06:24:43;;;;;;;32.30;20.98;;;11.00;99.90;;;;;;4910249;29;20044;-77
2023/04/01 06:27:30;;;;;;;32.55;22.58;;;11.10;99.90;;;;;;4914606;29;20100;-76
2023/04/01 06:30:18;;;;;;;25.98;19.67;;;11.20;99.90;;;;;;4910609;29;20048;-78
2023/04/01 06:33:09;;;;;;;27.00;19.50;;;11.20;99.90;;;;;;4902362;29;20052;-78
2023/04/01 06:36:01;;;;;;;26.35;19.23;;;11.20;99.90;;;;;;4887661;29;20049;-78
2023/04/01 06:38:54;;;;;;;20.83;14.75;;;11.20;99.90;;;;;;4903185;29;20052;-78
2023/04/01 06:41:44;;;;;;;18.90;13.10;;;11.10;99.90;;;;;;4894585;29;20048;-76
2023/04/01 06:44:22;;;;;;;16.60;11.85;;;11.10;99.90;;;;;;4892603;29;20077;-76
2023/04/01 06:47:22;;;;;;;18.77;14.73;;;11.00;99.90;;;;;;4914723;29;20059;-77
2023/04/01 06:50:23;;;;;;;12.95;11.40;;;10.80;99.90;;;;;;4885929;29;20041;-76
2023/04/01 06:53:35;;;;;;;16.73;14.40;;;10.80;99.90;;;;;;4825143;29;20124;-77
2023/04/01 06:56:33;;;;;;;22.15;18.60;;;10.80;99.90;;;;;;4897715;29;20108;-78
2023/04/01 06:59:14;;;;;;;27.23;21.40;;;10.90;99.90;;;;;;4880367;29;20506;-77
2023/04/01 07:01:50;;;;;;;22.55;19.67;;;11.00;99.90;;;;;;4867543;29;20066;-78
2023/04/01 07:04:23;;;;;;;24.13;18.25;;;10.90;99.90;;;;;;4878060;29;20072;-80
2023/04/01 07:06:57;;;;;;;16.58;13.93;;;10.80;99.90;;;;;;4880519;29;20995;-78
2023/04/01 07:09:34;;;;;;;13.10;10.98;;;10.80;99.90;;;;;;4879788;29;20049;-79
2023/04/01 07:12:28;;;;;;;12.98;11.57;;;10.80;99.90;;;;;;4901020;29;20145;-77
2023/04/01 07:15:20;;;;;;;13.98;10.68;;;10.70;99.90;;;;;;4893053;29;20094;-77
2023/04/01 07:17:53;;;;;;;11.10;6.93;;;10.80;99.90;;;;;;4882545;29;20093;-75
2023/04/01 07:20:30;;;;;;;6.03;4.00;;;10.70;99.90;;;;;;4896217;29;20136;-77
2023/04/01 07:23:01;;;;;;;12.75;5.85;;;10.60;99.90;;;;;;4893933;29;20044;-75
2023/04/01 07:25:59;;;;;;;5.45;3.95;;;10.60;99.90;;;;;;4908218;23;20040;-78
2023/04/01 07:28:34;;;;;;;8.32;4.95;;;10.60;99.90;;;;;;4915794;29;20529;-84
2023/04/01 07:31:19;;;;;;;7.20;4.40;;;10.60;99.90;;;;;;4889583;29;20051;-82
2023/04/01 07:33:56;;;;;;;5.75;3.75;;;10.70;99.90;;;;;;4914287;29;20104;-75
2023/04/01 07:36:31;;;;;;;8.52;3.80;;;10.70;99.90;;;;;;4914827;29;20064;-77
2023/04/01 07:39:13;;;;;;;6.78;4.30;;;10.80;99.90;;;;;;4897074;29;20389;-76
2023/04/01 07:42:09;;;;;;;5.35;3.20;;;10.60;99.90;;;;;;4913802;29;20090;-75
2023/04/01 07:44:43;;;;;;;46.33;17.92;;;10.60;99.90;;;;;;4899569;29;20131;-76
2023/04/01 07:47:22;;;;;;;8.20;4.23;;;10.50;99.90;;;;;;4898621;29;20040;-73
2023/04/01 07:50:02;;;;;;;13.45;9.57;;;10.50;99.90;;;;;;4898005;29;20040;-77
2023/04/01 07:52:39;;;;;;;9.25;4.15;;;10.40;99.90;;;;;;4897859;29;20056;-73
2023/04/01 07:55:20;;;;;;;9.07;5.88;;;10.40;99.90;;;;;;4897027;29;20036;-80
2023/04/01 07:57:57;;;;;;;7.63;4.93;;;10.40;99.90;;;;;;4913561;29;20052;-76
2023/04/01 08:00:31;;;;;;;11.13;6.40;;;10.40;99.90;;;;;;4897476;29;20568;-77
2023/04/01 08:03:22;;;;;;;14.88;7.80;;;10.40;99.90;;;;;;4896443;29;20571;-75
2023/04/01 08:05:56;;;;;;;10.63;5.97;;;10.50;99.90;;;;;;4897505;29;20135;-78
2023/04/01 08:08:37;;;;;;;49.58;36.55;;;10.50;99.90;;;;;;4896981;29;20044;-76
2023/04/01 08:11:37;;;;;;;22.00;15.35;;;10.40;99.90;;;;;;4913292;29;20048;-74
2023/04/01 08:14:37;;;;;;;10.50;7.32;;;10.40;99.90;;;;;;4914273;29;20059;-73
2023/04/01 08:17:40;;;;;;;10.57;6.07;;;10.40;99.90;;;;;;4896540;29;20095;-74
2023/04/01 08:20:19;;;;;;;9.55;5.80;;;10.40;99.90;;;;;;4911051;29;20044;-73
2023/04/01 08:22:52;;;;;;;39.83;23.02;;;10.30;99.90;;;;;;4895719;29;20044;-73
2023/04/01 08:25:30;;;;;;;50.10;28.67;;;10.30;99.90;;;;;;4910967;29;20098;-73
2023/04/01 08:28:04;;;;;;;18.10;11.45;;;10.30;99.90;;;;;;4897444;29;20516;-74
2023/04/01 08:30:43;;;;;;;24.77;16.13;;;10.20;99.90;;;;;;4896299;29;20151;-72
2023/04/01 08:33:17;;;;;;;24.17;12.38;;;10.20;99.90;;;;;;4896939;29;20072;-74
2023/04/01 08:35:51;;;;;;;28.45;17.85;;;10.20;99.90;;;;;;4903887;29;20143;-72
2023/04/01 08:38:22;;;;;;;24.38;14.68;;;10.20;99.90;;;;;;4916529;29;20049;-73
2023/04/01 08:40:59;;;;;;;18.10;9.30;;;10.20;99.90;;;;;;4901853;29;20072;-73
2023/04/01 08:43:59;;;;;;;18.60;11.30;;;10.20;99.90;;;;;;4896971;29;20143;-74
2023/04/01 08:46:50;;;;;;;13.45;7.80;;;10.10;99.90;;;;;;4896277;29;20044;-73
2023/04/01 08:49:33;;;;;;;13.75;8.02;;;10.20;99.90;;;;;;4912066;29;20043;-75
2023/04/01 08:52:23;;;;;;;20.88;12.02;;;10.20;99.90;;;;;;4897020;29;20071;-74
2023/04/01 08:55:18;;;;;;;17.70;10.82;;;10.10;99.90;;;;;;4890668;29;20500;-74
2023/04/01 08:58:53;;;;;;;16.92;11.25;;;10.10;99.90;;;;;;4915463;29;20055;-72
2023/04/01 09:01:46;;;;;;;18.73;13.45;;;10.20;99.90;;;;;;4902732;29;20040;-72
2023/04/01 09:04:49;;;;;;;19.17;11.23;;;10.30;99.90;;;;;;4901199;29;20059;-74
2023/04/01 09:07:36;;;;;;;17.75;12.27;;;10.30;99.90;;;;;;4897336;29;20390;-73
2023/04/01 09:10:49;;;;;;;17.23;12.40;;;10.30;99.90;;;;;;4896104;29;20072;-76
2023/04/01 09:14:37;;;;;;;22.02;14.50;;;10.30;99.90;;;;;;4875569;29;20048;-73
2023/04/01 09:17:44;;;;;;;16.63;12.18;;;10.20;99.90;;;;;;4910020;29;20050;-74
2023/04/01 09:20:26;;;;;;;13.63;10.07;;;10.30;99.90;;;;;;4902893;29;20397;-74
2023/04/01 09:23:11;;;;;;;15.90;9.15;;;10.20;99.90;;;;;;4898528;29;20054;-73
2023/04/01 09:26:00;;;;;;;15.38;10.02;;;10.20;99.90;;;;;;4903446;29;20054;-74
2023/04/01 09:28:34;;;;;;;7.82;4.68;;;10.10;99.90;;;;;;4897065;29;20685;-74
2023/04/01 09:31:38;;;;;;;8.45;4.90;;;10.00;99.90;;;;;;4896534;29;20488;-73
2023/04/01 09:34:55;;;;;;;8.27;3.60;;;9.80;99.90;;;;;;4910760;29;20680;-75
2023/04/01 09:37:36;;;;;;;10.68;4.20;;;9.80;99.90;;;;;;4861599;29;20060;-72
2023/04/01 09:40:18;;;;;;;4.63;2.22;;;9.70;99.90;;;;;;4896170;29;20048;-74
2023/04/01 09:43:07;;;;;;;6.78;2.67;;;9.60;99.90;;;;;;4896692;29;20213;-76
2023/04/01 09:45:45;;;;;;;15.10;5.05;;;9.50;99.90;;;;;;4895609;29;20028;-75
2023/04/01 09:48:26;;;;;;;8.57;3.83;;;9.50;99.90;;;;;;4905648;29;20066;-74
2023/04/01 09:51:05;;;;;;;7.60;3.58;;;9.30;99.90;;;;;;4916132;29;20040;-74
2023/04/01 09:53:49;;;;;;;11.18;3.85;;;9.30;99.90;;;;;;4898439;29;20048;-74
2023/04/01 09:56:36;;;;;;;5.72;3.67;;;9.20;99.90;;;;;;4897392;29;20056;-75
2023/04/01 09:59:38;;;;;;;8.02;3.80;;;9.20;99.90;;;;;;4896947;29;20151;-75
2023/04/01 10:02:57;;;;;;;9.88;4.63;;;9.20;99.90;;;;;;4901311;29;20191;-75
2023/04/01 10:06:06;;;;;;;9.55;3.65;;;9.30;99.90;;;;;;4881798;29;20441;-75
2023/04/01 10:09:16;;;;;;;9.52;4.68;;;9.30;99.90;;;;;;4871788;29;20083;-74
2023/04/01 10:12:24;;;;;;;9.75;5.95;;;9.30;99.90;;;;;;4913395;29;20814;-74
2023/04/01 10:15:35;;;;;;;10.52;3.83;;;9.40;99.90;;;;;;4876153;29;20056;-75
2023/04/01 10:18:26;;;;;;;8.38;3.60;;;9.60;99.90;;;;;;4896438;29;20054;-74
2023/04/01 10:21:20;;;;;;;13.27;11.18;;;9.80;99.90;;;;;;4895655;29;20052;-76
2023/04/01 10:24:25;;;;;;;7.80;5.07;;;9.80;99.90;;;;;;4912746;29;20048;-74
2023/04/01 10:27:36;;;;;;;9.70;5.32;;;9.80;99.90;;;;;;4896184;29;20063;-74
2023/04/01 10:30:38;;;;;;;17.33;10.32;;;9.80;99.90;;;;;;4883232;29;20492;-75
2023/04/01 10:34:10;;;;;;;17.20;10.50;;;9.80;99.90;;;;;;4894946;29;20468;-74
2023/04/01 10:36:57;;;;;;;11.60;6.60;;;9.90;99.90;;;;;;4783196;29;20295;-75
2023/04/01 10:40:29;;;;;;;14.18;7.55;;;9.90;99.90;;;;;;4895343;29;20056;-75
2023/04/01 10:44:03;;;;;;;23.17;13.13;;;9.70;99.90;;;;;;4894554;29;20397;-75
2023/04/01 10:46:59;;;;;;;19.67;12.55;;;9.60;99.90;;;;;;4896085;29;20059;-76
2023/04/01 10:50:02;;;;;;;22.15;11.32;;;9.70;99.90;;;;;;4913799;29;20052;-73
2023/04/01 10:53:04;;;;;;;18.45;11.98;;;9.70;99.90;;;;;;4883237;29;20115;-74
2023/04/01 10:56:28;;;;;;;22.20;13.32;;;9.80;99.90;;;;;;4916022;29;20080;-77
2023/04/01 10:59:59;;;;;;;22.77;12.05;;;9.70;99.90;;;;;;4919160;29;20055;-74
2023/04/01 11:03:38;;;;;;;21.67;12.15;;;9.60;99.90;;;;;;4913588;29;20087;-74
2023/04/01 11:07:18;;;;;;;28.42;18.27;;;9.70;99.90;;;;;;4913996;29;20063;-75
2023/04/01 11:10:24;;;;;;;25.27;14.88;;;9.80;99.90;;;;;;4875108;29;20047;-74
2023/04/01 11:13:27;;;;;;;28.98;18.30;;;9.80;99.90;;;;;;4880345;29;20461;-75
2023/04/01 11:16:27;;;;;;;28.00;17.20;;;9.70;99.90;;;;;;4904034;29;20076;-74
2023/04/01 11:19:25;;;;;;;24.70;15.30;;;9.70;99.90;;;;;;4899586;29;20370;-74
2023/04/01 11:22:25;;;;;;;30.70;17.27;;;9.50;99.90;;;;;;4890817;29;20052;-75
2023/04/01 11:25:29;;;;;;;24.77;15.30;;;9.50;99.90;;;;;;4913235;29;20056;-75
2023/04/01 11:28:54;;;;;;;24.23;14.85;;;9.60;99.90;;;;;;4915265;29;20063;-73
2023/04/01 11:31:42;;;;;;;18.55;12.25;;;9.90;99.90;;;;;;4895355;29;20137;-75
2023/04/01 11:34:25;;;;;;;13.23;9.25;;;10.00;99.90;;;;;;4915397;29;20489;-74
2023/04/01 11:37:04;;;;;;;17.80;10.20;;;10.10;99.90;;;;;;4898033;29;20052;-75
2023/04/01 11:39:41;;;;;;;21.60;12.02;;;10.30;99.90;;;;;;4899134;29;20576;-73
2023/04/01 11:42:37;;;;;;;21.45;11.27;;;10.60;99.90;;;;;;4916696;29;20046;-75
2023/04/01 11:45:39;;;;;;;24.33;13.88;;;10.90;99.90;;;;;;4917090;29;20204;-75
2023/04/01 11:48:38;;;;;;;40.60;20.95;;;11.10;99.90;;;;;;4906992;29;20078;-74
2023/04/01 11:51:38;;;;;;;73.57;29.98;;;11.10;99.90;;;;;;4915558;29;20044;-74
2023/04/01 11:54:21;;;;;;;61.35;25.85;;;10.90;99.90;;;;;;4896269;29;20052;-77
2023/04/01 11:57:05;;;;;;;47.15;22.02;;;10.80;99.90;;;;;;4915231;29;20052;-74
2023/04/01 12:00:21;;;;;;;46.53;21.05;;;10.70;99.90;;;;;;4922866;29;20036;-76
2023/04/01 12:03:04;;;;;;;22.50;10.45;;;10.90;99.90;;;;;;4820930;29;20050;-77
2023/04/01 12:05:48;;;;;;;19.77;10.70;;;10.70;99.90;;;;;;4818878;29;20441;-76
2023/04/01 12:08:25;;;;;;;16.60;9.15;;;10.60;99.90;;;;;;4805771;29;20069;-76
2023/04/01 12:11:02;;;;;;;12.68;7.25;;;10.60;99.90;;;;;;4820009;29;20554;-75
2023/04/01 12:13:44;;;;;;;11.52;7.78;;;10.40;99.90;;;;;;4818665;29;20057;-75
2023/04/01 12:16:50;;;;;;;15.88;8.32;;;10.40;99.90;;;;;;4819290;29;20054;-75
2023/04/01 12:19:27;;;;;;;12.13;8.38;;;10.60;99.90;;;;;;4819086;29;20051;-76
2023/04/01 12:22:16;;;;;;;16.15;9.60;;;10.70;99.90;;;;;;4818515;29;20053;-75
2023/04/01 12:24:48;;;;;;;11.40;7.72;;;10.80;99.90;;;;;;4818150;29;20046;-75
2023/04/01 12:27:29;;;;;;;11.63;7.68;;;10.80;99.90;;;;;;4817414;29;20179;-74
2023/04/01 12:30:29;;;;;;;15.27;8.68;;;10.90;99.90;;;;;;4819866;29;20504;-74
2023/04/01 12:33:18;;;;;;;16.52;9.95;;;11.00;99.90;;;;;;4808316;29;20130;-76
2023/04/01 12:36:00;;;;;;;13.50;8.65;;;11.10;99.90;;;;;;4825884;29;20058;-75
2023/04/01 12:38:38;;;;;;;15.45;8.82;;;11.20;99.90;;;;;;4913815;29;20056;-75
2023/04/01 12:41:11;;;;;;;16.75;10.98;;;11.00;99.90;;;;;;4897237;29;20063;-74
2023/04/01 12:44:21;;;;;;;17.58;10.95;;;11.00;99.90;;;;;;4897899;29;20056;-74
2023/04/01 12:47:17;;;;;;;15.30;9.45;;;11.00;99.90;;;;;;4857534;29;20811;-75
2023/04/01 12:50:14;;;;;;;14.27;8.90;;;11.00;99.90;;;;;;4859635;29;20504;-77
2023/04/01 12:52:57;;;;;;;12.88;7.50;;;11.00;99.90;;;;;;4851091;29;20144;-75
2023/04/01 12:55:38;;;;;;;15.70;8.98;;;11.00;99.90;;;;;;4857322;29;20041;-76
2023/04/01 12:58:38;;;;;;;15.40;10.40;;;11.00;99.90;;;;;;4858504;29;20053;-75
2023/04/01 13:01:25;;;;;;;15.40;9.75;;;11.00;99.90;;;;;;4831165;29;20073;-73
2023/04/01 13:04:35;;;;;;;14.38;10.13;;;11.00;99.90;;;;;;4875462;29;20072;-76
2023/04/01 13:07:44;;;;;;;14.95;8.68;;;11.10;99.90;;;;;;4869212;29;20525;-74
2023/04/01 13:10:21;;;;;;;17.77;10.73;;;11.10;99.90;;;;;;4824686;29;20558;-74
2023/04/01 13:13:18;;;;;;;15.80;10.30;;;11.20;99.90;;;;;;4855189;29;20112;-75
2023/04/01 13:15:52;;;;;;;15.35;9.95;;;11.30;99.90;;;;;;4855535;29;20045;-73
2023/04/01 13:18:29;;;;;;;30.70;12.00;;;11.30;99.90;;;;;;4902018;29;20042;-74
2023/04/01 13:21:06;;;;;;;19.85;11.60;;;11.20;99.90;;;;;;4913914;29;20036;-75
2023/04/01 13:23:49;;;;;;;20.30;11.05;;;11.20;99.90;;;;;;4896641;29;20051;-80
2023/04/01 13:26:24;;;;;;;19.17;11.68;;;11.30;99.90;;;;;;4896841;29;20107;-75
2023/04/01 13:29:02;;;;;;;17.65;10.82;;;11.50;99.90;;;;;;4919161;29;20048;-73
2023/04/01 13:31:51;;;;;;;17.42;10.98;;;11.80;99.90;;;;;;4900423;29;20539;-74
2023/04/01 13:34:33;;;;;;;19.88;12.90;;;12.40;99.90;;;;;;4899056;29;20040;-75
2023/04/01 13:37:15;;;;;;;26.23;14.65;;;12.70;99.90;;;;;;4915344;29;20457;-73
2023/04/01 13:39:56;;;;;;;18.88;13.70;;;12.90;99.90;;;;;;4913612;29;20048;-74
2023/04/01 13:42:27;;;;;;;24.42;16.75;;;12.90;99.90;;;;;;4912665;29;20056;-74
2023/04/01 13:45:03;;;;;;;21.45;16.27;;;12.90;99.90;;;;;;4915355;29;20064;-72
2023/04/01 13:48:09;;;;;;;26.92;18.35;;;13.10;99.90;;;;;;4894716;29;20055;-73
2023/04/01 13:51:02;;;;;;;31.63;23.60;;;13.30;99.90;;;;;;4894658;29;20074;-74